Data for 01/29/2007

Time Sea-Level Adjusted Pressure Absolute Pressure Temperature Relative Humidity Dew Point   
(mb) (inHg) (mb) (inHg) (C) (F) (%) (C) (F)
00:05 1023 30.21 852 25.16 -7.3 18.9 52 -15.6 4
00:10 1023 30.21 852 25.16 -7 19.4 50 -15.7 3.8
00:15 1023 30.21 852 25.16 -6.6 20.2 49 -15.5 4.1
00:20 1023 30.21 852 25.16 -7.5 18.6 54 -15.4 4.3
00:25 1023 30.21 852 25.16 -8.4 16.9 55 -16 3.1
00:30 1023 30.21 852 25.16 -8.1 17.4 54 -15.9 3.4
00:35 1023 30.21 852 25.16 -8.9 16 57 -15.9 3.3
00:40 1023 30.21 853 25.19 -9.8 14.5 59 -16.3 2.7
00:45 1023 30.21 853 25.19 -9.3 15.3 57 -16.3 2.6
00:50 1024 30.24 853 25.19 -8.6 16.6 55 -16.1 3
00:55 1024 30.24 853 25.19 -7.9 17.8 53 -15.9 3.3
01:00 1024 30.24 853 25.19 -7.9 17.8 54 -15.7 3.7
01:05 1024 30.24 853 25.19 -7.8 17.9 53 -15.9 3.4
01:10 1024 30.24 853 25.19 -7.7 18.2 54 -15.5 4.1
01:15 1024 30.24 853 25.19 -7.5 18.5 53 -15.5 4
01:20 1024 30.24 853 25.19 -7.7 18.1 54 -15.6 3.9
01:25 1024 30.24 853 25.19 -7.5 18.6 52 -15.6 3.9
01:30 1024 30.24 853 25.19 -7.3 19 52 -15.5 4.1
01:35 1024 30.24 853 25.19 -7.4 18.6 53 -15.4 4.2
01:40 1024 30.24 853 25.19 -7.8 18 53 -15.7 3.7
01:45 1024 30.24 853 25.19 -7.5 18.4 52 -15.8 3.6
01:50 1024 30.24 853 25.19 -7.6 18.4 53 -15.7 3.8
01:55 1024 30.24 853 25.19 -7.8 18 53 -15.7 3.8
02:00 1024 30.24 853 25.19 -7.6 18.3 52 -15.7 3.7
02:05 1024 30.24 853 25.19 -7.5 18.6 52 -15.6 3.9
02:10 1024 30.24 853 25.19 -7.8 18 54 -15.7 3.8
02:15 1024 30.24 853 25.19 -8.1 17.5 54 -15.8 3.5
02:20 1024 30.24 853 25.19 -8 17.7 53 -15.9 3.4
02:25 1024 30.24 853 25.19 -8 17.7 54 -15.7 3.8
02:30 1024 30.24 853 25.19 -8.4 16.9 56 -15.8 3.6
02:35 1024 30.24 853 25.19 -8.5 16.7 56 -15.8 3.5
02:40 1024 30.24 853 25.19 -8.4 16.8 56 -15.7 3.7
02:45 1024 30.24 853 25.19 -8.2 17.2 55 -15.8 3.6
02:50 1024 30.24 853 25.19 -8.1 17.4 54 -15.8 3.5
02:55 1024 30.24 853 25.19 -8 17.7 54 -15.8 3.6
03:00 1024 30.24 853 25.19 -7.8 18 53 -15.7 3.7
03:05 1024 30.24 853 25.19 -7.7 18.2 53 -15.8 3.6
03:10 1024 30.24 853 25.19 -7.7 18.2 53 -15.7 3.8
03:15 1024 30.24 853 25.19 -7.9 17.8 55 -15.5 4.1
03:20 1024 30.24 853 25.19 -8.1 17.4 55 -15.6 3.8
03:25 1024 30.24 853 25.19 -8.2 17.2 56 -15.6 3.9
03:30 1024 30.24 853 25.19 -8.4 17 56 -15.7 3.7
03:35 1024 30.24 853 25.19 -8.1 17.4 55 -15.7 3.8
03:40 1024 30.24 853 25.19 -7.9 17.9 54 -15.6 3.9
03:45 1024 30.24 853 25.19 -7.7 18.1 54 -15.5 4.1
03:50 1024 30.24 853 25.19 -7.8 17.9 54 -15.7 3.8
03:55 1024 30.24 853 25.19 -7.5 18.6 52 -15.6 3.9
04:00 1024 30.24 853 25.19 -7.5 18.4 54 -15.4 4.2
04:05 1024 30.24 853 25.19 -7.7 18.2 54 -15.4 4.2
04:10 1024 30.24 853 25.19 -8.2 17.3 56 -15.5 4.1
04:15 1024 30.24 853 25.19 -8 17.5 56 -15.4 4.3
04:20 1024 30.24 853 25.19 -7.9 17.9 54 -15.7 3.8
04:25 1024 30.24 853 25.19 -7.8 18 55 -15.3 4.4
04:30 1024 30.24 853 25.19 -8.4 17 57 -15.4 4.3
04:35 1024 30.24 853 25.19 -8.8 16.3 59 -15.5 4.2
04:40 1024 30.24 853 25.19 -8.9 16 59 -15.5 4.1
04:45 1024 30.24 853 25.19 -9.1 15.6 60 -15.6 3.9
04:50 1024 30.24 853 25.19 -9.1 15.6 60 -15.5 4
04:55 1024 30.24 853 25.19 -9.1 15.7 60 -15.5 4.1
05:00 1024 30.24 853 25.19 -8.8 16.2 59 -15.4 4.3
05:05 1024 30.24 853 25.19 -9 15.8 60 -15.5 4.1
05:10 1024 30.24 853 25.19 -9.1 15.7 59 -15.6 3.8
05:15 1024 30.24 853 25.19 -9 15.7 59 -15.6 3.9
05:20 1024 30.24 853 25.19 -9 15.8 59 -15.6 3.8
05:25 1024 30.24 853 25.19 -8.9 15.9 58 -15.7 3.8
05:30 1024 30.24 853 25.19 -8.8 16.1 59 -15.4 4.3
05:35 1024 30.24 853 25.19 -8.8 16.2 59 -15.5 4.2
05:40 1024 30.24 853 25.19 -9 15.9 59 -15.5 4
05:45 1024 30.24 853 25.19 -9.1 15.6 61 -15.4 4.3
05:50 1024 30.24 853 25.19 -9 15.8 60 -15.4 4.2
05:55 1024 30.24 853 25.19 -9.5 15 61 -15.6 3.9
06:00 1024 30.24 853 25.19 -9.3 15.2 60 -15.7 3.8
06:05 1024 30.24 853 25.19 -9.3 15.3 61 -15.5 4.1
06:10 1024 30.24 853 25.19 -9.2 15.4 61 -15.5 4.1
06:15 1024 30.24 853 25.19 -9.1 15.6 60 -15.6 4
06:20 1024 30.24 853 25.19 -8.9 16 59 -15.5 4.1
06:25 1024 30.24 853 25.19 -9.4 15.1 61 -15.5 4
06:30 1024 30.24 853 25.19 -9.5 14.9 61 -15.6 3.8
06:35 1024 30.24 853 25.19 -9.6 14.8 61 -15.7 3.7
06:40 1024 30.24 853 25.19 -9.5 14.9 61 -15.7 3.8
06:45 1024 30.24 853 25.19 -9.8 14.5 61 -15.9 3.4
06:50 1024 30.24 853 25.19 -10 13.9 62 -16 3.3
06:55 1024 30.24 853 25.19 -9.7 14.5 62 -15.7 3.8
07:00 1024 30.24 853 25.19 -9.6 14.7 61 -15.8 3.6
07:05 1023 30.21 853 25.19 -9.9 14.1 63 -15.8 3.6
07:10 1023 30.21 853 25.19 -10.3 13.5 63 -16 3.3
07:15 1023 30.21 853 25.19 -10.2 13.6 64 -15.7 3.7
07:20 1023 30.21 853 25.19 -10.5 13.1 66 -15.7 3.7
07:25 1023 30.21 853 25.19 -10.5 13.1 66 -15.7 3.7
07:30 1023 30.21 853 25.19 -10.5 13.1 65 -15.8 3.6
07:35 1023 30.21 853 25.19 -10.6 13 65 -15.9 3.5
07:40 1023 30.21 853 25.19 -10.6 13 65 -15.9 3.4
07:45 1023 30.21 853 25.19 -10.6 13 66 -15.7 3.7
07:50 1023 30.21 853 25.19 -10.5 13.2 65 -15.8 3.5
07:55 1023 30.21 853 25.19 -11 12.3 67 -16 3.2
08:00 1023 30.21 853 25.19 -11.2 11.8 68 -16.1 3.1
08:05 1023 30.21 853 25.19 -11.1 12.1 68 -15.9 3.3
08:10 1023 30.21 853 25.19 -10.7 12.7 67 -15.7 3.7
08:15 1023 30.21 853 25.19 -10.7 12.8 66 -15.8 3.5
08:20 1023 30.21 853 25.19 -10.5 13.1 65 -15.8 3.5
08:25 1023 30.21 853 25.19 -10.5 13.1 65 -15.9 3.5
08:30 1023 30.21 853 25.19 -10.2 13.6 64 -15.8 3.6
08:35 1023 30.21 853 25.19 -9.9 14.2 63 -15.7 3.7
08:40 1023 30.21 853 25.19 -9.8 14.3 63 -15.7 3.8
08:45 1023 30.21 853 25.19 -9.2 15.4 60 -15.6 3.8
08:50 1023 30.21 853 25.19 -9.2 15.5 61 -15.4 4.2
08:55 1023 30.21 853 25.19 -8.8 16.1 59 -15.4 4.3
09:00 1023 30.21 852 25.16 -8.9 16 60 -15.3 4.5
09:05 1023 30.21 852 25.16 -8.6 16.5 58 -15.5 4
09:10 1023 30.21 852 25.16 -8.6 16.6 57 -15.6 4
09:15 1023 30.21 852 25.16 -8.4 16.9 56 -15.7 3.7
09:20 1023 30.21 852 25.16 -7.8 17.9 55 -15.4 4.2
09:25 1023 30.21 852 25.16 -7.6 18.4 54 -15.5 4.1
09:30 1023 30.21 852 25.16 -7.4 18.6 53 -15.4 4.4
09:35 1023 30.21 852 25.16 -7.2 19 52 -15.4 4.3
09:40 1023 30.21 852 25.16 -6.9 19.6 52 -15.2 4.6
09:45 1023 30.21 852 25.16 -6.7 20 51 -15.2 4.7
09:50 1023 30.21 852 25.16 -6.3 20.7 52 -14.7 5.5
09:55 1023 30.21 852 25.16 -5.6 21.9 50 -14.5 5.8
10:00 1023 30.21 852 25.16 -6 21.2 49 -15 5.1
10:05 1023 30.21 852 25.16 -6.1 20.9 49 -15.2 4.7
10:10 1023 30.21 852 25.16 -5.5 22.2 48 -14.9 5.3
10:15 1023 30.21 852 25.16 -4.5 23.9 45 -14.8 5.4
10:20 1023 30.21 852 25.16 -3.6 25.5 43 -14.6 5.7
10:25 1023 30.21 852 25.16 -3.2 26.3 42 -14.4 6.1
10:30 1023 30.21 852 25.16 -3 26.6 41 -14.5 6
10:35 1023 30.21 852 25.16 -3.3 26.1 42 -14.4 6
10:40 1023 30.21 852 25.16 -3.7 25.4 42 -14.7 5.5
10:45 1023 30.21 852 25.16 -3.8 25.2 43 -14.6 5.7
10:50 1023 30.21 853 25.19 -4 24.9 44 -14.6 5.7
10:55 1023 30.21 852 25.16 -3.1 26.5 40 -14.8 5.4
11:00 1023 30.21 852 25.16 -3.2 26.3 41 -14.6 5.7
11:05 1023 30.21 852 25.16 -3.4 25.9 41 -14.8 5.3
11:10 1023 30.21 852 25.16 -3.4 25.9 41 -14.8 5.3
11:15 1023 30.21 852 25.16 -3.2 26.2 40 -15.1 4.8
11:20 1023 30.21 852 25.16 -2.9 26.8 40 -14.7 5.6
11:25 1023 30.21 852 25.16 -3 26.5 41 -14.6 5.8
11:30 1023 30.21 852 25.16 -2.9 26.7 41 -14.3 6.2
11:35 1023 30.21 852 25.16 -3 26.5 41 -14.5 5.9
11:40 1023 30.21 852 25.16 -3 26.6 42 -14.1 6.6
11:45 1023 30.21 852 25.16 -3 26.6 42 -14.3 6.2
11:50 1023 30.21 852 25.16 -3 26.7 41 -14.4 6.1
11:55 1023 30.21 852 25.16 -3 26.5 42 -14.3 6.3
12:00 1023 30.21 852 25.16 -2.8 27 42 -14.1 6.6
12:05 1023 30.21 852 25.16 -2.8 27 42 -13.9 6.9
12:10 1023 30.21 852 25.16 -3.2 26.2 44 -13.8 7.2
12:15 1022 30.18 852 25.16 -3.3 26.1 43 -14.1 6.7
12:20 1022 30.18 852 25.16 -3.3 26.1 43 -14.1 6.6
12:25 1022 30.18 852 25.16 -3.2 26.3 43 -14.2 6.5
12:30 1022 30.18 852 25.16 -3.2 26.3 43 -14 6.7
12:35 1022 30.18 852 25.16 -2.8 27 42 -14 6.8
12:40 1022 30.18 851 25.13 -2.2 28.1 41 -13.9 7.1
12:45 1022 30.18 851 25.13 -1.9 28.6 40 -13.8 7.1
12:50 1022 30.18 851 25.13 -2.1 28.2 41 -13.8 7.2
12:55 1022 30.18 851 25.13 -2.4 27.6 42 -13.6 7.5
13:00 1022 30.18 851 25.13 -2.8 26.9 44 -13.4 7.8
13:05 1022 30.18 851 25.13 -2.7 27.2 43 -13.5 7.7
13:10 1022 30.18 851 25.13 -2.9 26.8 44 -13.5 7.6
13:15 1022 30.18 851 25.13 -3.5 25.7 46 -13.5 7.7
13:20 1022 30.18 851 25.13 -4 24.8 49 -13.3 8
13:25 1022 30.18 851 25.13 -4 24.8 49 -13.3 8
13:30 1022 30.18 851 25.13 -3.6 25.5 47 -13.3 8
13:35 1022 30.18 851 25.13 -3.3 26 46 -13.5 7.7
13:40 1022 30.18 851 25.13 -3.5 25.7 47 -13.4 7.9
13:45 1022 30.18 851 25.13 -3.8 25.1 48 -13.2 8.2
13:50 1022 30.18 851 25.13 -3.8 25.2 49 -13.1 8.4
13:55 1022 30.18 851 25.13 -3.7 25.3 46 -13.8 7.2
14:00 1022 30.18 851 25.13 -3.3 26 45 -13.6 7.5
14:05 1022 30.18 851 25.13 -3.2 26.2 45 -13.7 7.3
14:10 1022 30.18 851 25.13 -3.2 26.2 45 -13.6 7.6
14:15 1021 30.15 851 25.13 -3.6 25.5 46 -13.6 7.5
14:20 1021 30.15 851 25.13 -3.5 25.7 46 -13.4 7.8
14:25 1021 30.15 851 25.13 -3.4 25.9 46 -13.4 7.9
14:30 1021 30.15 850 25.1 -3.6 25.4 48 -13.1 8.5
14:35 1021 30.15 850 25.1 -3.7 25.3 48 -13.1 8.4
14:40 1021 30.15 850 25.1 -3.8 25.1 47 -13.6 7.6
14:45 1021 30.15 850 25.1 -3.9 24.9 48 -13.4 7.9
14:50 1021 30.15 850 25.1 -3.9 24.9 48 -13.3 8.1
14:55 1021 30.15 850 25.1 -3.7 25.4 47 -13.4 7.8
15:00 1021 30.15 850 25.1 -3.2 26.2 48 -12.8 8.9
15:05 1021 30.15 850 25.1 -3.3 26.1 47 -13.1 8.5
15:10 1021 30.15 850 25.1 -3.5 25.8 46 -13.6 7.5
15:15 1021 30.15 850 25.1 -3.6 25.5 46 -13.6 7.5
15:20 1021 30.15 850 25.1 -3.6 25.5 48 -13.2 8.3
15:25 1021 30.15 850 25.1 -3.3 26 48 -12.7 9.1
15:30 1021 30.15 850 25.1 -3.5 25.8 47 -13.2 8.3
15:35 1021 30.15 850 25.1 -3.4 25.8 48 -12.9 8.8
15:40 1021 30.15 850 25.1 -3.1 26.4 48 -12.8 9
15:45 1021 30.15 850 25.1 -3.2 26.2 47 -12.9 8.8
15:50 1021 30.15 850 25.1 -3.3 26 49 -12.6 9.3
15:55 1021 30.15 850 25.1 -3.2 26.2 47 -13 8.6
16:00 1021 30.15 850 25.1 -3.6 25.5 49 -13 8.6
16:05 1021 30.15 850 25.1 -3.6 25.5 49 -12.9 8.8
16:10 1021 30.15 850 25.1 -3.9 25.1 50 -12.8 9
16:15 1021 30.15 850 25.1 -3.9 25 50 -12.8 9
16:20 1021 30.15 850 25.1 -3.9 24.9 51 -12.7 9.1
16:25 1021 30.15 850 25.1 -3.9 25 51 -12.5 9.5
16:30 1021 30.15 850 25.1 -4 24.7 52 -12.4 9.6
16:35 1021 30.15 850 25.1 -4.1 24.7 52 -12.6 9.4
16:40 1021 30.15 850 25.1 -4 24.8 51 -12.7 9.2
16:45 1021 30.15 850 25.1 -4.2 24.4 53 -12.5 9.5
16:50 1021 30.15 850 25.1 -4.3 24.3 52 -12.7 9.1
16:55 1021 30.15 850 25.1 -4.2 24.4 53 -12.5 9.6
17:00 1021 30.15 850 25.1 -4.3 24.2 53 -12.5 9.6
17:05 1021 30.15 850 25.1 -4.3 24.2 52 -12.9 8.8
17:10 1021 30.15 850 25.1 -4.5 23.9 53 -12.8 9
17:15 1021 30.15 850 25.1 -4.6 23.8 54 -12.5 9.4
17:20 1021 30.15 850 25.1 -4.6 23.7 54 -12.6 9.3
17:25 1021 30.15 850 25.1 -4.6 23.7 54 -12.6 9.4
17:30 1021 30.15 850 25.1 -4.8 23.4 55 -12.5 9.4
17:35 1021 30.15 850 25.1 -4.9 23.2 55 -12.7 9.2
17:40 1021 30.15 850 25.1 -5 23 54 -12.8 8.9
17:45 1021 30.15 850 25.1 -5.1 22.9 54 -13 8.5
17:50 1021 30.15 850 25.1 -5.1 22.8 52 -13.4 7.8
17:55 1021 30.15 850 25.1 -5 23.1 54 -12.8 8.9
18:00 1021 30.15 850 25.1 -4.8 23.3 52 -13.2 8.3
18:05 1021 30.15 850 25.1 -4.6 23.7 54 -12.5 9.5
18:10 1021 30.15 850 25.1 -4.7 23.6 56 -12.2 10.1
18:15 1021 30.15 850 25.1 -5.1 22.8 57 -12.4 9.7
18:20 1021 30.15 850 25.1 -5.4 22.4 56 -12.8 9
18:25 1021 30.15 850 25.1 -5 22.9 57 -12.3 9.9
18:30 1021 30.15 850 25.1 -5.1 22.8 57 -12.4 9.7
18:35 1021 30.15 850 25.1 -5 23 55 -12.6 9.3
18:40 1021 30.15 850 25.1 -4.8 23.4 57 -12.1 10.2
18:45 1021 30.15 850 25.1 -4.9 23.1 59 -11.9 10.6
18:50 1021 30.15 850 25.1 -5.3 22.5 59 -12.2 10.1
18:55 1021 30.15 850 25.1 -5.1 22.8 55 -12.9 8.8
19:00 1021 30.15 850 25.1 -5.1 22.8 55 -12.9 8.8
19:05 1021 30.15 851 25.13 -5.5 22.1 59 -12.3 9.8
19:10 1021 30.15 851 25.13 -5.7 21.8 60 -12.4 9.7
19:15 1021 30.15 851 25.13 -5.7 21.7 61 -12.2 10.1
19:20 1021 30.15 851 25.13 -5.9 21.3 61 -12.3 9.8
19:25 1021 30.15 851 25.13 -6 21.3 59 -12.7 9.2
19:30 1021 30.15 851 25.13 -5.9 21.4 61 -12.3 9.9
19:35 1022 30.18 851 25.13 -6.2 20.9 63 -12.2 10.1
19:40 1022 30.18 851 25.13 -6.6 20.1 63 -12.5 9.5
19:45 1022 30.18 851 25.13 -7 19.4 64 -12.6 9.2
19:50 1022 30.18 851 25.13 -7.1 19.3 63 -13 8.6
19:55 1022 30.18 851 25.13 -7 19.3 64 -12.8 9
20:00 1021 30.15 851 25.13 -6.9 19.5 61 -13.2 8.2
20:05 1021 30.15 851 25.13 -6.8 19.8 60 -13.2 8.2
20:10 1021 30.15 851 25.13 -6.7 19.9 62 -12.9 8.8
20:15 1021 30.15 851 25.13 -6.7 19.9 62 -12.9 8.8
20:20 1021 30.15 851 25.13 -6.3 20.7 59 -13 8.7
20:25 1021 30.15 851 25.13 -6.2 20.9 59 -12.9 8.7
20:30 1021 30.15 851 25.13 -5.8 21.5 57 -12.9 8.7
20:35 1021 30.15 850 25.1 -5.4 22.3 56 -12.7 9.1
20:40 1021 30.15 850 25.1 -5.3 22.5 56 -12.7 9.2
20:45 1021 30.15 850 25.1 -5.3 22.4 56 -12.7 9.1
20:50 1021 30.15 850 25.1 -5.4 22.3 56 -12.8 9
20:55 1021 30.15 850 25.1 -5.5 22.1 56 -12.9 8.8
21:00 1021 30.15 850 25.1 -5.5 22.1 56 -12.9 8.8
21:05 1021 30.15 850 25.1 -5.7 21.8 57 -12.9 8.7
21:10 1021 30.15 850 25.1 -5.8 21.6 56 -13.2 8.3
21:15 1021 30.15 850 25.1 -5.8 21.5 56 -13.3 8.1
21:20 1021 30.15 850 25.1 -5.9 21.3 56 -13.3 8.1
21:25 1021 30.15 850 25.1 -6 21.2 57 -13.3 8.1
21:30 1021 30.15 851 25.13 -6.1 21.1 56 -13.4 7.9
21:35 1021 30.15 851 25.13 -6.2 20.9 57 -13.4 7.9
21:40 1021 30.15 851 25.13 -6.2 20.8 57 -13.5 7.7
21:45 1021 30.15 851 25.13 -6.2 20.9 56 -13.5 7.6
21:50 1022 30.18 851 25.13 -6.2 20.8 57 -13.5 7.6
21:55 1021 30.15 851 25.13 -6.2 20.8 57 -13.5 7.7
22:00 1022 30.18 851 25.13 -6.3 20.6 57 -13.6 7.5
22:05 1022 30.18 851 25.13 -6.4 20.4 57 -13.6 7.4
22:10 1022 30.18 851 25.13 -6.4 20.4 57 -13.6 7.5
22:15 1022 30.18 851 25.13 -6.5 20.3 57 -13.7 7.3
22:20 1022 30.18 851 25.13 -6.5 20.3 56 -13.8 7.2
22:25 1022 30.18 851 25.13 -6.5 20.3 56 -13.9 6.9
22:30 1022 30.18 851 25.13 -6.5 20.4 56 -13.9 7
22:35 1022 30.18 851 25.13 -6.5 20.3 56 -14 6.9
22:40 1022 30.18 851 25.13 -6.5 20.3 55 -14.1 6.7
22:45 1022 30.18 851 25.13 -6.6 20.2 56 -14 6.8
22:50 1022 30.18 851 25.13 -6.7 20 56 -14.1 6.7
22:55 1022 30.18 851 25.13 -6.7 20 56 -14.2 6.5
23:00 1022 30.18 851 25.13 -6.7 19.9 56 -14.2 6.4
23:05 1022 30.18 851 25.13 -6.8 19.8 55 -14.3 6.2
23:10 1022 30.18 851 25.13 -6.7 19.9 55 -14.4 6
23:15 1022 30.18 851 25.13 -6.7 19.9 55 -14.3 6.3
23:20 1022 30.18 851 25.13 -6.9 19.7 56 -14.3 6.2
23:25 1022 30.18 851 25.13 -6.9 19.7 56 -14.2 6.5
23:30 1022 30.18 851 25.13 -7 19.4 56 -14.3 6.2
23:35 1022 30.18 851 25.13 -7 19.4 56 -14.4 6.1
23:40 1022 30.18 851 25.13 -7.1 19.3 56 -14.3 6.2
23:45 1022 30.18 851 25.13 -7.2 19.1 57 -14.4 6.1
23:50 1022 30.18 851 25.13 -7.2 19.1 56 -14.4 6
23:55 1022 30.18 851 25.13 -7.2 19.1 57 -14.4 6.1
24:00 1022 30.18 851 25.13 -7.3 19 57 -14.3 6.2